createdAt,value
2018-04-14T00:01:30.477Z,9.30
2018-04-14T00:04:05.668Z,9.30
2018-04-14T00:06:40.795Z,9.20
2018-04-14T00:09:16.095Z,9.20
2018-04-14T00:11:51.398Z,9.20
2018-04-14T00:14:26.706Z,9.10
2018-04-14T00:17:02.089Z,9.10
2018-04-14T00:19:38.019Z,9.10
2018-04-14T00:22:13.141Z,9.00
2018-04-14T00:24:48.510Z,9.10
2018-04-14T00:27:23.785Z,9.00
2018-04-14T00:29:58.907Z,9.00
2018-04-14T00:32:34.128Z,9.00
2018-04-14T00:35:10.193Z,9.00
2018-04-14T00:37:45.347Z,9.00
2018-04-14T00:40:20.492Z,9.00
2018-04-14T00:42:55.768Z,9.00
2018-04-14T00:45:31.025Z,9.00
2018-04-14T00:48:06.903Z,8.90
2018-04-14T00:50:42.069Z,8.90
2018-04-14T00:53:35.045Z,8.90
2018-04-14T00:56:10.250Z,8.90
2018-04-14T00:58:45.384Z,8.90
2018-04-14T01:01:20.665Z,8.90
2018-04-14T01:03:56.012Z,8.90
2018-04-14T01:06:31.268Z,8.90
2018-04-14T01:09:06.620Z,9.00
2018-04-14T01:11:41.911Z,9.00
2018-04-14T01:14:17.173Z,9.00
2018-04-14T01:16:52.297Z,9.10
2018-04-14T01:19:28.334Z,9.10
2018-04-14T01:22:04.214Z,9.00
2018-04-14T01:24:40.252Z,9.00
2018-04-14T01:27:16.245Z,8.90
2018-04-14T01:29:52.231Z,8.90
2018-04-14T01:32:27.458Z,8.90
2018-04-14T01:35:02.808Z,8.90
2018-04-14T01:37:38.136Z,8.90
2018-04-14T01:40:13.478Z,8.90
2018-04-14T01:42:48.657Z,8.90
2018-04-14T01:45:23.930Z,8.90
2018-04-14T01:47:59.175Z,8.90
2018-04-14T01:50:34.484Z,8.80
2018-04-14T01:53:10.362Z,8.80
2018-04-14T01:55:45.565Z,8.80
2018-04-14T01:58:20.712Z,8.80
2018-04-14T02:00:55.813Z,8.80
2018-04-14T02:03:31.082Z,8.80
2018-04-14T02:06:06.260Z,8.80
2018-04-14T02:08:41.491Z,8.70
2018-04-14T02:11:16.742Z,8.70
2018-04-14T02:13:51.976Z,8.70
2018-04-14T02:16:27.984Z,8.80
2018-04-14T02:19:03.237Z,8.80
2018-04-14T02:21:38.648Z,8.80
2018-04-14T02:24:14.571Z,8.70
2018-04-14T02:26:50.916Z,8.70
2018-04-14T02:29:26.211Z,8.70
2018-04-14T02:32:02.170Z,8.80
2018-04-14T02:34:38.196Z,8.70
2018-04-14T02:37:13.448Z,8.70
2018-04-14T02:39:49.415Z,8.70
2018-04-14T02:42:24.580Z,8.70
2018-04-14T02:44:59.796Z,8.70
2018-04-14T02:47:34.924Z,8.70
2018-04-14T02:50:10.120Z,8.70
2018-04-14T02:52:45.279Z,8.80
2018-04-14T02:55:20.622Z,8.80
2018-04-14T02:57:56.730Z,8.80
2018-04-14T03:00:31.915Z,8.80
2018-04-14T03:03:08.174Z,8.80
2018-04-14T03:05:43.426Z,8.70
2018-04-14T03:08:18.656Z,8.70
2018-04-14T03:10:53.934Z,8.70
2018-04-14T03:13:29.105Z,8.70
2018-04-14T03:16:05.018Z,8.60
2018-04-14T03:18:40.145Z,8.60
2018-04-14T03:21:15.244Z,8.60
2018-04-14T03:23:50.531Z,8.60
2018-04-14T03:26:25.642Z,8.60
2018-04-14T03:29:00.897Z,8.60
2018-04-14T03:31:36.326Z,8.50
2018-04-14T03:34:12.313Z,8.50
2018-04-14T03:36:47.446Z,8.50
2018-04-14T03:39:22.827Z,8.50
2018-04-14T03:41:59.352Z,8.50
2018-04-14T03:44:34.744Z,8.50
2018-04-14T03:47:09.925Z,8.40
2018-04-14T03:49:45.222Z,8.40
2018-04-14T03:52:20.977Z,8.30
2018-04-14T03:54:56.143Z,8.30
2018-04-14T03:57:31.271Z,8.30
2018-04-14T04:00:06.544Z,8.20
2018-04-14T04:02:41.724Z,8.20
2018-04-14T04:05:17.657Z,8.10
2018-04-14T04:07:52.784Z,8.10
2018-04-14T04:10:28.854Z,8.10
2018-04-14T04:13:04.838Z,8.00
2018-04-14T04:15:40.002Z,8.00
2018-04-14T04:21:27.015Z,7.90
2018-04-14T04:24:19.901Z,7.90
2018-04-14T04:26:55.124Z,7.90
2018-04-14T04:29:30.261Z,7.80
2018-04-14T04:32:06.205Z,7.80
2018-04-14T04:34:41.515Z,7.80
2018-04-14T04:37:16.909Z,7.80
2018-04-14T04:39:52.245Z,7.80
2018-04-14T04:42:28.216Z,7.80
2018-04-14T04:45:03.324Z,7.70
2018-04-14T04:47:39.199Z,7.70
2018-04-14T04:50:15.145Z,7.70
2018-04-14T04:52:51.039Z,7.70
2018-04-14T04:55:26.306Z,7.60
2018-04-14T04:58:01.446Z,7.70
2018-04-14T05:00:36.757Z,7.70
2018-04-14T05:03:12.064Z,7.70
2018-04-14T05:05:47.445Z,7.70
2018-04-14T05:08:22.732Z,7.80
2018-04-14T05:10:57.932Z,7.80
2018-04-14T05:13:33.883Z,7.70
2018-04-14T05:16:09.081Z,7.70
2018-04-14T05:18:44.428Z,7.70
2018-04-14T05:21:19.536Z,7.70
2018-04-14T05:23:55.243Z,7.80
2018-04-14T05:26:30.379Z,7.80
2018-04-14T05:29:06.303Z,7.90
2018-04-14T05:31:42.283Z,7.90
2018-04-14T05:34:18.208Z,7.90
2018-04-14T05:36:53.412Z,7.90
2018-04-14T05:39:28.656Z,8.00
2018-04-14T05:42:04.072Z,7.90
2018-04-14T05:44:39.306Z,8.00
2018-04-14T05:47:14.368Z,7.90
2018-04-14T05:49:50.275Z,7.90
2018-04-14T05:52:25.361Z,7.90
2018-04-14T05:55:00.813Z,8.00
2018-04-14T05:57:36.806Z,8.00
2018-04-14T06:00:12.816Z,8.00
2018-04-14T06:02:47.902Z,8.00
2018-04-14T06:05:23.840Z,8.00
2018-04-14T06:07:59.152Z,8.00
2018-04-14T06:10:34.504Z,8.00
2018-04-14T06:13:10.606Z,8.20
2018-04-14T06:15:45.744Z,8.10
2018-04-14T06:18:20.856Z,8.20
2018-04-14T06:20:55.980Z,8.20
2018-04-14T06:23:31.156Z,8.30
2018-04-14T06:26:07.084Z,8.40
2018-04-14T06:28:42.318Z,8.40
2018-04-14T06:31:18.201Z,9.00
2018-04-14T06:33:54.221Z,9.40
2018-04-14T06:36:29.565Z,9.40
2018-04-14T06:39:05.629Z,9.80
2018-04-14T06:41:40.735Z,10.00
2018-04-14T06:44:16.736Z,10.60
2018-04-14T06:46:53.692Z,10.60
2018-04-14T06:49:29.729Z,10.80
2018-04-14T06:52:05.568Z,10.70
2018-04-14T06:54:41.509Z,11.10
2018-04-14T06:57:16.649Z,11.10
2018-04-14T06:59:51.789Z,11.10
2018-04-14T07:02:26.905Z,11.00
2018-04-14T07:05:02.109Z,11.10
2018-04-14T07:07:37.249Z,11.10
2018-04-14T07:10:12.484Z,10.90
2018-04-14T07:12:47.693Z,10.70
2018-04-14T07:15:23.026Z,10.60
2018-04-14T07:17:58.116Z,10.80
2018-04-14T07:20:33.323Z,10.70
2018-04-14T07:23:08.570Z,10.70
2018-04-14T07:25:44.470Z,10.60
2018-04-14T07:28:19.793Z,10.50
2018-04-14T07:30:55.005Z,10.50
2018-04-14T07:33:30.274Z,10.50
2018-04-14T07:36:05.412Z,10.60
2018-04-14T07:38:40.530Z,10.60
2018-04-14T07:41:16.409Z,10.40
2018-04-14T07:43:51.535Z,10.40
2018-04-14T07:46:26.884Z,10.50
2018-04-14T07:49:02.165Z,10.70
2018-04-14T07:51:37.574Z,10.80
2018-04-14T07:54:12.900Z,11.00
2018-04-14T07:56:48.208Z,10.90
2018-04-14T07:59:23.500Z,11.00
2018-04-14T08:01:58.646Z,11.00
2018-04-14T08:04:34.680Z,11.90
2018-04-14T08:07:10.028Z,11.80
2018-04-14T08:09:45.256Z,12.30
2018-04-14T08:12:21.348Z,12.80
2018-04-14T08:14:57.287Z,13.00
2018-04-14T08:17:32.515Z,13.00
2018-04-14T08:20:07.682Z,13.50
2018-04-14T08:22:46.436Z,13.70
2018-04-14T08:25:21.749Z,13.60
2018-04-14T08:27:56.982Z,13.50
2018-04-14T08:30:36.424Z,13.60
2018-04-14T08:33:11.580Z,13.60
2018-04-14T08:35:50.835Z,13.70
2018-04-14T08:38:26.122Z,13.70
2018-04-14T08:41:01.506Z,13.80
2018-04-14T08:43:36.594Z,13.90
2018-04-14T08:46:11.781Z,14.10
2018-04-14T08:48:47.107Z,14.70
2018-04-14T08:51:22.297Z,15.10
2018-04-14T08:53:58.189Z,15.50
2018-04-14T08:56:33.297Z,15.50
2018-04-14T08:59:08.435Z,15.60
2018-04-14T09:01:43.681Z,15.90
2018-04-14T09:04:19.905Z,15.70
2018-04-14T09:06:55.777Z,16.10
2018-04-14T09:09:31.115Z,16.00
2018-04-14T09:12:06.405Z,16.10
2018-04-14T09:14:41.740Z,16.50
2018-04-14T09:17:16.819Z,16.60
2018-04-14T09:19:52.066Z,17.10
2018-04-14T09:22:27.384Z,17.30
2018-04-14T09:25:03.374Z,17.30
2018-04-14T09:27:38.569Z,17.30
2018-04-14T09:30:15.876Z,16.90
2018-04-14T09:32:51.095Z,16.60
2018-04-14T09:35:27.018Z,16.50
2018-04-14T09:38:02.172Z,16.50
2018-04-14T09:40:37.275Z,16.80
2018-04-14T09:43:13.237Z,16.80
2018-04-14T09:45:50.053Z,16.70
2018-04-14T09:48:25.293Z,16.70
2018-04-14T09:51:00.551Z,16.90
2018-04-14T09:53:35.849Z,17.00
2018-04-14T09:56:11.182Z,17.10
2018-04-14T09:58:46.466Z,17.20
2018-04-14T10:01:27.472Z,17.40
2018-04-14T10:04:02.745Z,17.60
2018-04-14T10:06:37.999Z,17.50
2018-04-14T10:09:13.227Z,17.60
2018-04-14T10:11:48.428Z,18.00
2018-04-14T10:14:23.748Z,18.20
2018-04-14T10:16:58.928Z,18.60
2018-04-14T10:19:34.163Z,18.50
2018-04-14T10:22:09.383Z,18.40
2018-04-14T10:24:45.428Z,18.90
2018-04-14T10:27:20.604Z,18.90
2018-04-14T10:29:55.751Z,19.00
2018-04-14T10:32:31.795Z,18.60
2018-04-14T10:35:07.784Z,18.50
2018-04-14T10:37:43.157Z,18.40
2018-04-14T10:40:18.278Z,18.60
2018-04-14T10:42:53.568Z,18.60
2018-04-14T10:45:29.515Z,18.80
2018-04-14T10:48:05.495Z,18.80
2018-04-14T10:50:40.594Z,18.80
2018-04-14T10:53:15.821Z,18.90
2018-04-14T10:55:51.119Z,19.20
2018-04-14T10:58:26.295Z,19.30
2018-04-14T11:01:01.548Z,19.30
2018-04-14T11:03:36.844Z,19.40
2018-04-14T11:06:12.139Z,19.40
2018-04-14T11:08:47.483Z,19.60
2018-04-14T11:11:22.839Z,19.60
2018-04-14T11:13:58.031Z,19.20
2018-04-14T11:16:33.303Z,19.30
2018-04-14T11:19:08.465Z,19.40
2018-04-14T11:21:43.552Z,19.50
2018-04-14T11:24:18.815Z,19.80
2018-04-14T11:26:54.250Z,19.90
2018-04-14T11:29:30.176Z,19.90
2018-04-14T11:32:05.319Z,19.90
2018-04-14T11:34:40.603Z,20.20
2018-04-14T11:37:16.308Z,20.00
2018-04-14T11:39:52.289Z,20.00
2018-04-14T11:42:27.462Z,20.00
2018-04-14T11:45:03.312Z,20.20
2018-04-14T11:47:38.457Z,20.20
2018-04-14T11:50:13.773Z,20.30
2018-04-14T11:52:48.954Z,20.30
2018-04-14T11:55:24.250Z,20.30
2018-04-14T11:58:00.194Z,20.70
2018-04-14T12:00:35.812Z,20.70
2018-04-14T12:03:10.948Z,20.80
2018-04-14T12:05:46.281Z,20.50
2018-04-14T12:08:21.631Z,20.40
2018-04-14T12:10:56.908Z,20.60
2018-04-14T12:13:32.158Z,20.50
2018-04-14T12:16:07.552Z,20.70
2018-04-14T12:18:42.825Z,20.80
2018-04-14T12:21:18.172Z,21.00
2018-04-14T12:23:53.692Z,21.00
2018-04-14T12:26:28.918Z,20.90
2018-04-14T12:29:04.892Z,20.50
2018-04-14T12:31:40.902Z,20.50
2018-04-14T12:34:16.120Z,20.50
2018-04-14T12:36:51.385Z,20.70
2018-04-14T12:39:26.622Z,20.50
2018-04-14T12:42:02.596Z,20.30
2018-04-14T12:44:38.495Z,20.40
2018-04-14T12:47:14.417Z,20.30
2018-04-14T12:49:50.313Z,20.20
2018-04-14T12:52:25.504Z,20.20
2018-04-14T12:55:01.689Z,20.10
2018-04-14T12:57:37.569Z,20.50
2018-04-14T13:00:12.736Z,20.40
2018-04-14T13:02:47.961Z,20.70
2018-04-14T13:05:23.488Z,20.90
2018-04-14T13:07:58.994Z,20.90
2018-04-14T13:10:34.354Z,20.80
2018-04-14T13:13:09.619Z,20.90
2018-04-14T13:15:45.502Z,20.90
2018-04-14T13:18:20.692Z,20.80
2018-04-14T13:20:55.830Z,20.90
2018-04-14T13:23:31.084Z,20.90
2018-04-14T13:26:06.388Z,20.80
2018-04-14T13:28:41.584Z,20.80
2018-04-14T13:31:16.833Z,20.80
2018-04-14T13:33:51.992Z,20.90
2018-04-14T13:36:27.308Z,20.90
2018-04-14T13:39:02.557Z,21.00
2018-04-14T13:41:37.716Z,20.80
2018-04-14T13:44:12.843Z,20.80
2018-04-14T13:46:48.811Z,20.80
2018-04-14T13:49:24.061Z,20.80
2018-04-14T13:51:59.395Z,21.00
2018-04-14T13:54:34.689Z,21.20
2018-04-14T13:57:09.974Z,21.30
2018-04-14T13:59:45.091Z,20.90
2018-04-14T14:02:20.354Z,20.60
2018-04-14T14:04:55.604Z,20.60
2018-04-14T14:07:30.911Z,20.50
2018-04-14T14:10:06.007Z,20.70
2018-04-14T14:12:41.892Z,20.70
2018-04-14T14:15:18.024Z,20.70
2018-04-14T14:17:53.273Z,20.90
2018-04-14T14:20:28.504Z,20.70
2018-04-14T14:23:03.647Z,20.70
2018-04-14T14:25:38.944Z,20.50
2018-04-14T14:28:15.187Z,20.60
2018-04-14T14:30:50.375Z,20.60
2018-04-14T14:33:25.791Z,20.60
2018-04-14T14:36:01.705Z,20.50
2018-04-14T14:38:37.029Z,20.50
2018-04-14T14:41:12.392Z,20.30
2018-04-14T14:43:47.506Z,20.20
2018-04-14T14:46:22.812Z,20.10
2018-04-14T14:48:58.188Z,20.30
2018-04-14T14:51:34.183Z,20.50
2018-04-14T14:54:10.216Z,20.80
2018-04-14T14:56:45.382Z,20.80
2018-04-14T14:59:20.588Z,20.70
2018-04-14T15:01:55.843Z,20.60
2018-04-14T15:04:31.153Z,20.40
2018-04-14T15:07:06.434Z,20.40
2018-04-14T15:09:41.771Z,20.30
2018-04-14T15:12:17.083Z,20.20
2018-04-14T15:14:53.065Z,20.20
2018-04-14T15:17:28.389Z,20.20
2018-04-14T15:20:03.701Z,20.20
2018-04-14T15:22:38.776Z,20.30
2018-04-14T15:25:14.133Z,20.30
2018-04-14T15:27:49.850Z,20.20
2018-04-14T15:30:25.933Z,20.10
2018-04-14T15:33:01.235Z,20.10
2018-04-14T15:35:36.598Z,20.00
2018-04-14T15:38:11.969Z,19.90
2018-04-14T15:40:47.133Z,19.80
2018-04-14T15:43:22.178Z,19.90
2018-04-14T15:45:57.453Z,19.90
2018-04-14T15:48:33.410Z,19.80
2018-04-14T15:51:09.268Z,19.80
2018-04-14T15:53:45.234Z,19.80
2018-04-14T15:56:20.374Z,19.70
2018-04-14T15:58:55.812Z,19.80
2018-04-14T16:01:31.228Z,19.70
2018-04-14T16:04:09.789Z,19.70
2018-04-14T16:06:41.747Z,19.80
2018-04-14T16:09:16.978Z,19.70
2018-04-14T16:11:52.290Z,19.60
2018-04-14T16:14:27.626Z,19.60
2018-04-14T16:17:02.908Z,19.50
2018-04-14T16:19:38.832Z,19.50
2018-04-14T16:22:14.072Z,19.50
2018-04-14T16:24:49.446Z,19.60
2018-04-14T16:27:24.592Z,19.70
2018-04-14T16:29:59.673Z,19.70
2018-04-14T16:32:35.588Z,19.70
2018-04-14T16:35:10.752Z,19.60
2018-04-14T16:37:46.759Z,19.60
2018-04-14T16:40:21.938Z,19.60
2018-04-14T16:42:57.211Z,19.60
2018-04-14T16:45:32.637Z,19.60
2018-04-14T16:48:08.728Z,19.50
2018-04-14T16:50:44.006Z,19.50
2018-04-14T16:53:19.309Z,19.40
2018-04-14T16:55:54.418Z,19.40
2018-04-14T16:58:30.323Z,19.30
2018-04-14T17:01:05.863Z,19.30
2018-04-14T17:03:41.032Z,19.30
2018-04-14T17:06:16.287Z,19.20
2018-04-14T17:08:51.446Z,19.20
2018-04-14T17:11:27.002Z,19.10
2018-04-14T17:14:02.277Z,19.10
2018-04-14T17:16:37.369Z,19.10
2018-04-14T17:19:12.675Z,19.00
2018-04-14T17:21:47.758Z,19.00
2018-04-14T17:24:23.736Z,18.80
2018-04-14T17:26:58.828Z,18.80
2018-04-14T17:29:34.148Z,18.80
2018-04-14T17:32:09.335Z,18.80
2018-04-14T17:34:45.010Z,18.70
2018-04-14T17:37:20.257Z,18.80
2018-04-14T17:39:55.511Z,18.70
2018-04-14T17:42:30.947Z,18.60
2018-04-14T17:45:06.253Z,18.50
2018-04-14T17:47:41.458Z,18.50
2018-04-14T17:50:16.750Z,18.50
2018-04-14T17:52:52.810Z,18.30
2018-04-14T17:55:28.116Z,18.30
2018-04-14T17:58:03.394Z,18.30
2018-04-14T18:00:38.533Z,18.30
2018-04-14T18:03:13.869Z,18.30
2018-04-14T18:05:49.719Z,18.10
2018-04-14T18:08:24.968Z,18.10
2018-04-14T18:11:00.210Z,18.00
2018-04-14T18:13:35.480Z,18.00
2018-04-14T18:16:10.592Z,17.90
2018-04-14T18:18:46.904Z,17.80
2018-04-14T18:21:23.026Z,17.70
2018-04-14T18:23:58.297Z,17.70
2018-04-14T18:26:33.565Z,17.60
2018-04-14T18:29:08.786Z,17.50
2018-04-14T18:31:44.130Z,17.40
2018-04-14T18:34:19.408Z,17.30
2018-04-14T18:36:54.723Z,17.20
2018-04-14T18:39:30.081Z,17.20
2018-04-14T18:42:05.424Z,17.10
2018-04-14T18:44:40.710Z,17.00
2018-04-14T18:47:16.735Z,16.90
2018-04-14T18:49:51.861Z,16.90
2018-04-14T18:52:27.916Z,16.80
2018-04-14T18:55:03.093Z,16.70
2018-04-14T18:57:38.401Z,16.70
2018-04-14T19:00:13.708Z,16.50
2018-04-14T19:02:48.926Z,16.30
2018-04-14T19:05:24.209Z,16.20
2018-04-14T19:07:59.522Z,16.10
2018-04-14T19:10:34.737Z,16.00
2018-04-14T19:13:10.687Z,16.00
2018-04-14T19:15:46.659Z,15.80
2018-04-14T19:18:22.655Z,15.70
2018-04-14T19:20:57.944Z,15.70
2018-04-14T19:23:33.025Z,15.60
2018-04-14T19:26:08.227Z,15.60
2018-04-14T19:28:43.551Z,15.50
2018-04-14T19:31:19.457Z,15.50
2018-04-14T19:33:54.795Z,15.50
2018-04-14T19:36:30.133Z,15.50
2018-04-14T19:39:08.353Z,15.50
2018-04-14T19:41:43.579Z,15.40
2018-04-14T19:44:20.092Z,15.30
2018-04-14T19:46:56.140Z,15.20
2018-04-14T19:49:31.989Z,15.20
2018-04-14T19:52:07.905Z,15.00
2018-04-14T19:54:43.164Z,15.00
2018-04-14T19:57:18.425Z,14.90
2018-04-14T19:59:53.899Z,14.80
2018-04-14T20:02:29.411Z,14.70
2018-04-14T20:05:04.856Z,14.60
2018-04-14T20:07:40.080Z,14.50
2018-04-14T20:10:15.453Z,14.40
2018-04-14T20:12:50.792Z,14.30
2018-04-14T20:15:27.128Z,14.20
2018-04-14T20:18:03.117Z,14.20
2018-04-14T20:20:38.223Z,14.10
2018-04-14T20:23:13.672Z,14.20
2018-04-14T20:25:48.800Z,14.20
2018-04-14T20:28:24.145Z,14.20
2018-04-14T20:31:00.121Z,14.20
2018-04-14T20:33:35.249Z,14.10
2018-04-14T20:36:10.568Z,14.20
2018-04-14T20:38:45.804Z,14.20
2018-04-14T20:41:21.087Z,14.20
2018-04-14T20:43:56.321Z,14.20
2018-04-14T20:46:35.997Z,14.20
2018-04-14T20:49:11.295Z,14.10
2018-04-14T20:51:46.620Z,14.20
2018-04-14T20:54:21.897Z,14.20
2018-04-14T20:56:57.859Z,13.90
2018-04-14T20:59:32.968Z,13.80
2018-04-14T21:02:08.236Z,13.60
2018-04-14T21:04:43.504Z,13.50
2018-04-14T21:07:18.676Z,13.30
2018-04-14T21:09:54.731Z,13.30
2018-04-14T21:12:29.901Z,13.30
2018-04-14T21:15:05.083Z,13.40
2018-04-14T21:17:41.113Z,13.50
2018-04-14T21:20:16.273Z,13.50
2018-04-14T21:22:51.388Z,13.60
2018-04-14T21:25:26.602Z,13.60
2018-04-14T21:28:01.990Z,13.60
2018-04-14T21:30:37.297Z,13.70
2018-04-14T21:33:13.349Z,13.70
2018-04-14T21:35:49.274Z,13.70
2018-04-14T21:38:24.478Z,13.60
2018-04-14T21:40:59.678Z,13.60
2018-04-14T21:43:35.427Z,13.50
2018-04-14T21:46:10.681Z,13.40
2018-04-14T21:48:45.929Z,13.40
2018-04-14T21:51:21.236Z,13.50
2018-04-14T21:53:56.505Z,13.50
2018-04-14T21:56:31.759Z,13.50
2018-04-14T21:59:07.028Z,13.30
2018-04-14T22:01:42.940Z,13.30
2018-04-14T22:04:18.877Z,13.30
2018-04-14T22:06:53.990Z,13.20
2018-04-14T22:09:29.281Z,13.20
2018-04-14T22:12:05.271Z,13.20
2018-04-14T22:14:40.505Z,13.20
2018-04-14T22:17:15.740Z,13.20
2018-04-14T22:19:51.081Z,13.20
2018-04-14T22:22:26.297Z,13.20
2018-04-14T22:25:02.209Z,13.30
2018-04-14T22:27:37.350Z,13.20
2018-04-14T22:30:12.572Z,13.20
2018-04-14T22:32:47.920Z,13.20
2018-04-14T22:35:23.239Z,13.20
2018-04-14T22:37:59.217Z,13.10
2018-04-14T22:40:35.709Z,13.10
2018-04-14T22:43:11.849Z,13.10
2018-04-14T22:45:47.139Z,13.10
2018-04-14T22:48:22.472Z,13.10
2018-04-14T22:50:58.422Z,13.00
2018-04-14T22:53:33.847Z,13.00
2018-04-14T22:56:09.083Z,13.00
2018-04-14T22:58:44.507Z,12.90
2018-04-14T23:01:19.776Z,12.90
2018-04-14T23:03:55.021Z,12.90
2018-04-14T23:06:31.041Z,12.90
2018-04-14T23:09:07.226Z,12.80
2018-04-14T23:11:42.652Z,12.80
2018-04-14T23:14:17.911Z,12.80
2018-04-14T23:16:53.385Z,12.70
2018-04-14T23:19:28.486Z,12.70
2018-04-14T23:22:03.813Z,12.70
2018-04-14T23:24:38.944Z,12.70
2018-04-14T23:27:14.153Z,12.50
2018-04-14T23:29:50.064Z,12.50
2018-04-14T23:32:25.132Z,12.50
2018-04-14T23:35:01.153Z,12.50
2018-04-14T23:37:36.476Z,12.40
2018-04-14T23:40:11.771Z,12.40
2018-04-14T23:42:47.750Z,12.30
2018-04-14T23:45:22.940Z,12.30
2018-04-14T23:47:58.900Z,12.40
2018-04-14T23:50:34.813Z,12.40
2018-04-14T23:53:10.029Z,12.40
2018-04-14T23:55:45.286Z,12.50
2018-04-14T23:58:21.265Z,12.50
